• Join FlightAware (Why Join?)
  • Login
  • US Flag 
01:26PM EDT


 

Airport Tracker/Info


-or-


 

Live Flight TrackerFlight Track Log ✈ UAL4234 ✈ 13-May-2013 ✈ KIAH - KCLT

Flight Track Log - Related Links

Times and Time Zones

All times are in EDT time to prevent confusion due to time zone crossing. See the UAL4234 flight status page for this flight to view local times or setup timezone preferences in your user account.

Time Position Orientation Groundspeed Altitude Reporting Facility
EDT Latitude Longitude Course Direction KTS MPH feet Rate Location/Type
09:05AM 29.9592 -95.3392 90° East 159 183 800  Level Houston Center
09:06AM 29.9492 -95.3208 122° Southeast 168 193 1,300 1,440 Climbing Houston Center
09:07AM 29.9228 -95.2761 124° Southeast 203 234 2,600 1,440 Climbing Houston Center
09:08AM 29.8842 -95.2089 124° Southeast 244 281 4,000 960 Climbing Houston Center
09:09AM 29.9834 -94.7992 90° East  Level FlightAware Approximate
09:09AM 29.8431 -95.1400 125° Southeast 258 297 4,600  Level Houston Center
09:10AM 29.9833 -94.6657 90° East  Level FlightAware Approximate
09:10AM 29.8014 -95.0692 124° Southeast 263 303 7,400  Level Houston Center
09:11AM 29.9834 -94.5321 90° East  Level FlightAware Approximate
09:11AM 29.8147 -94.9861 79° East 268 308 9,700  Level Houston Center
09:12AM 29.8394 -94.8958 72° East 292 336 10,900 1,020 Climbing Houston Center
09:13AM 29.8667 -94.7903 73° East 339 390 11,900 1,080 Climbing Houston Center
09:14AM 29.8969 -94.6772 73° East 367 422 13,200 1,320 Climbing Houston Center
09:15AM 29.9356 -94.5344 73° East 387 445 14,700 1,320 Climbing Houston Center
09:16AM 29.9686 -94.4100 73° East 399 459 16,000 1,200 Climbing Houston Center
09:17AM 29.9986 -94.2864 74° East 402 463 17,200 1,020 Climbing Houston Center
09:18AM 30.0153 -94.1575 81° East 408 470 18,200 1,080 Climbing Houston Center
09:19AM 30.0317 -94.0256 82° East 417 480 19,500 1,200 Climbing Houston Center
09:20AM 30.0478 -93.8939 82° East 419 482 20,800 1,320 Climbing Houston Center
09:21AM 30.0658 -93.7364 82° East 417 480 22,300 1,200 Climbing Houston Center
09:22AM 30.0822 -93.6028 82° East 422 486 23,300 960 Climbing Houston Center
09:23AM 30.0992 -93.4647 82° East 436 502 24,300 960 Climbing Houston Center
09:24AM 30.1150 -93.3242 83° East 444 511 25,300 900 Climbing Houston Center
09:25AM 30.1322 -93.1803 82° East 453 521 26,200 1,020 Climbing Houston Center
09:26AM 30.1889 -93.0206 68° East 452 520 27,400 1,020 Climbing Houston Center
09:27AM 30.2561 -92.8967 58° Northeast 456 525 28,400 900 Climbing Houston Center
09:28AM 30.3250 -92.7708 58° Northeast 463 533 29,300 900 Climbing Houston Center
09:29AM 30.3933 -92.6444 58° Northeast 465 535 30,300 960 Climbing Houston Center
09:30AM 30.4636 -92.5167 57° Northeast 471 542 31,300 900 Climbing Houston Center
09:31AM 30.5342 -92.3861 58° Northeast 477 549 32,200 780 Climbing Houston Center
09:32AM 30.6208 -92.2269 58° Northeast 486 559 33,000 360 Climbing Houston Center
09:33AM 30.6950 -92.0872 58° Northeast 505 581 33,000  Level Houston Center
09:34AM 30.7719 -91.9428 58° Northeast 524 603 33,000  Level Houston Center
09:35AM 30.8481 -91.8003 58° Northeast 523 602 33,000  Level Houston Center
09:36AM 30.9219 -91.6597 58° Northeast 522 601 33,000 180 Level Houston Center
09:38AM 31.0144 -91.4842 58° Northeast 528 608 33,400 420 Climbing Houston Center
09:39AM 31.0919 -91.3372 58° Northeast 530 610 33,900 480 Climbing Houston Center
09:40AM 31.1694 -91.1886 59° Northeast 535 616 34,400 480 Climbing Houston Center
09:41AM 31.2467 -91.0403 59° Northeast 534 615 34,900 240 Climbing Houston Center
09:42AM 31.3256 -90.8906 58° Northeast 537 618 35,000  Climbing Houston Center
09:43AM 31.4053 -90.7369 59° Northeast 541 623 35,000  Level Houston Center
09:44AM 31.4828 -90.5856 59° Northeast 543 625 35,000  Level Houston Center
09:45AM 31.5742 -90.4061 59° Northeast 540 621 35,000  Level Houston Center
09:46AM 31.6497 -90.2581 59° Northeast 534 615 35,000  Level Houston Center
09:47AM 31.7256 -90.1103 59° Northeast 529 609 35,000  Level Houston Center
09:48AM 31.8019 -89.9608 59° Northeast 531 611 35,000  Level Houston Center
09:49AM 31.8836 -89.7994 59° Northeast 534 615 35,000  Level Memphis Center
09:50AM 31.9600 -89.6447 60° Northeast 534 615 35,000  Level Memphis Center
09:51AM 32.0175 -89.4875 67° East 524 603 35,000  Level Memphis Center
09:52AM 32.0706 -89.3375 67° East 524 603 35,000  Level Memphis Center
09:53AM 32.1256 -89.1750 68° East 524 603 35,000  Level Memphis Center
09:54AM 32.1783 -89.0147 69° East 529 609 35,000  Level Memphis Center
09:55AM 32.2369 -88.8494 67° East 535 616 35,000  Level Memphis Center
09:57AM 32.3406 -88.5472 68° East 553 636 35,000  Level Atlanta Center
09:58AM 32.3922 -88.3878 69° East 534 615 35,000  Level Atlanta Center
09:59AM 32.4458 -88.2253 69° East 529 609 35,000  Level Atlanta Center
10:00AM 32.4992 -88.0653 68° East 522 601 35,000  Level Atlanta Center
10:01AM 32.5478 -87.9150 69° East 531 611 35,000  Level Atlanta Center
10:02AM 32.6006 -87.7569 68° East 528 608 35,000 300 Level Atlanta Center
10:03AM 32.6389 -87.5933 74° East 518 596 35,600 840 Climbing Atlanta Center
10:04AM 32.6333 -87.4228 92° East 510 587 36,700 660 Climbing Atlanta Center
10:05AM 32.6211 -87.2522 95° East 510 587 37,000 120 Climbing Atlanta Center
10:06AM 32.6275 -87.0775 87° East 517 595 37,000  Level Atlanta Center
10:07AM 32.6669 -86.9108 74° East 511 588 37,000  Level Atlanta Center
10:08AM 32.7064 -86.7419 74° East 525 604 37,000  Level Atlanta Center
10:09AM 32.7600 -86.5781 69° East 525 604 37,000  Level Atlanta Center
10:10AM 32.8217 -86.4069 67° East 525 604 37,000  Level Atlanta Center
10:11AM 32.8811 -86.2478 66° East 519 597 37,000  Level Atlanta Center
10:12AM 32.9361 -86.0833 68° East 525 604 37,000  Level Atlanta Center
10:13AM 32.9928 -85.9261 67° East 520 598 37,000  Level Atlanta Center
10:14AM 33.0494 -85.7661 67° East 520 598 37,000  Level Atlanta Center
10:15AM 33.1058 -85.6061 67° East 520 598 37,000  Level Atlanta Center
10:16AM 33.1536 -85.4706 67° East 504 580 37,000  Level Atlanta Center
10:17AM 33.2094 -85.3100 67° East 504 580 37,000  Level Atlanta Center
10:18AM 33.2675 -85.1369 68° East 514 592 37,000  Level Atlanta Center
10:19AM 33.3231 -84.9761 68° East 514 592 37,000  Level Atlanta Center
10:20AM 33.3786 -84.8200 67° East 508 585 37,000  Level Atlanta Center
10:21AM 33.4317 -84.6586 68° East 514 592 37,000  Level Atlanta Center
10:22AM 33.4867 -84.4947 68° East 514 592 37,000  Level Atlanta Center
10:23AM 33.5414 -84.3353 68° East 514 592 37,000  Level Atlanta Center
10:24AM 33.5958 -84.1736 68° East 514 592 37,000  Level Atlanta Center
10:25AM 33.6481 -84.0114 69° East 514 592 37,000 -660 Level Atlanta Center
10:26AM 33.7044 -83.8492 67° East 514 592 35,700 -1,020 Descending Atlanta Center
10:27AM 33.7561 -83.6864 69° East 525 604 35,000 -720 Descending Atlanta Center
10:28AM 33.8100 -83.5289 68° East 525 604 34,300 -1,020 Descending Atlanta Center
10:29AM 33.8633 -83.3683 68° East 512 589 33,000 -1,320 Descending Atlanta Center
10:30AM 33.9167 -83.2078 68° East 512 589 31,700 -1,440 Descending Atlanta Center
10:31AM 33.9656 -83.0519 69° East 512 589 30,200 -1,500 Descending Atlanta Center
10:32AM 34.0164 -82.8961 68° East 507 583 28,700 -1,500 Descending Atlanta Center
10:33AM 34.0669 -82.7397 69° East 502 578 27,200 -1,320 Descending Atlanta Center
10:34AM 34.1072 -82.6036 70° East 488 562 26,100 -1,200 Descending Atlanta Center
10:35AM 34.1617 -82.4397 68° East 483 556 24,900 -1,140 Descending Atlanta Center
10:36AM 34.2097 -82.2906 69° East 473 544 23,900 -1,500 Descending Atlanta Center
10:37AM 34.2597 -82.1489 67° East 467 537 22,000 -1,980 Descending Atlanta Center
10:38AM 34.3414 -82.0411 47° Northeast 442 509 20,000 -2,040 Descending Atlanta Center
10:39AM 34.4211 -81.9386 47° Northeast 437 503 18,000 -1,860 Descending Atlanta Center
10:40AM 34.5050 -81.8358 45° Northeast 422 486 16,300 -1,920 Descending Atlanta Center
10:40AM 34.5661 -81.7611 45° Northeast 412 474 14,700 -2,040 Descending Atlanta Center
10:41AM 34.6069 -81.7094 46° Northeast 405 466 13,700 -1,560 Descending Atlanta Center
10:42AM 34.6497 -81.6528 47° Northeast 395 455 12,800 -1,500 Descending Atlanta Center
10:42AM 34.6803 -81.6139 46° Northeast 381 438 12,200 -900 Descending Atlanta Center
10:43AM 34.7208 -81.5622 46° Northeast 381 438 11,900 -180 Descending Atlanta Center
10:44AM 34.7797 -81.4819 48° Northeast 330 380 11,900 60 Level Atlanta Center
10:44AM 34.8064 -81.4533 41° Northeast 302 348 12,000  Climbing Atlanta Center
10:45AM 34.8389 -81.4069 50° Northeast 311 358 11,900  Descending Atlanta Center
10:45AM 34.8714 -81.3678 45° Northeast 305 351 12,000  Climbing Atlanta Center
10:46AM 34.8978 -81.3342 46° Northeast 299 344 11,900  Descending Atlanta Center
10:46AM 34.9300 -81.2900 48° Northeast 305 351 12,000  Climbing Atlanta Center
10:47AM 34.9544 -81.2589 46° Northeast 299 344 11,900  Descending Atlanta Center
10:47AM 34.9889 -81.2169 45° Northeast 304 350 12,000 -420 Climbing Atlanta Center
10:48AM 35.0131 -81.1806 51° Northeast 305 351 11,500 -1,260 Descending Atlanta Center
10:48AM 35.0436 -81.1442 44° Northeast 309 356 10,900 -1,320 Descending Atlanta Center
10:49AM 35.0781 -81.0997 47° Northeast 299 344 10,200 -1,200 Descending Atlanta Center
10:49AM 35.1025 -81.0761 38° Northeast 295 339 9,700 -1,200 Descending Atlanta Center
10:50AM 35.1458 -81.0619 15° North 270 311 9,000 -840 Descending Atlanta Center
10:50AM 35.1753 -81.0683 350° North 247 284 8,900 -1,020 Descending Atlanta Center
10:51AM 35.2422 -81.0736 356° North 237 273 7,600 -1,800 Descending Atlanta Center
10:52AM 35.3114 -81.0814 355° North 246 283 5,300 -2,100 Descending Atlanta Center
10:53AM 35.3625 -81.0386 34° Northeast 251 289 3,200 -1,920 Descending Atlanta Center